createdAt,value
2019-06-26T00:01:45.049Z,73.58
2019-06-26T00:04:16.972Z,73.28
2019-06-26T00:06:48.995Z,73.24
2019-06-26T00:09:23.192Z,73.04
2019-06-26T00:11:55.941Z,73.74
2019-06-26T00:14:29.992Z,74.17
2019-06-26T00:17:02.306Z,74.19
2019-06-26T00:19:35.852Z,73.68
2019-06-26T00:22:11.373Z,73.84
2019-06-26T00:24:43.959Z,74.54
2019-06-26T00:27:17.890Z,75.19
2019-06-26T00:29:49.194Z,75.32
2019-06-26T00:32:20.825Z,74.78
2019-06-26T00:34:54.819Z,74.97
2019-06-26T00:37:27.034Z,74.40
2019-06-26T00:40:02.575Z,74.41
2019-06-26T00:42:34.091Z,74.01
2019-06-26T00:45:07.610Z,73.91
2019-06-26T00:47:40.445Z,73.59
2019-06-26T00:50:13.385Z,73.39
2019-06-26T00:52:47.795Z,73.38
2019-06-26T00:55:20.834Z,73.29
2019-06-26T00:57:52.045Z,73.71
2019-06-26T01:00:32.281Z,73.10
2019-06-26T01:03:05.304Z,73.10
2019-06-26T01:05:37.100Z,72.80
2019-06-26T01:08:10.178Z,72.97
2019-06-26T01:10:43.225Z,72.69
2019-06-26T01:13:18.478Z,72.83
2019-06-26T01:15:49.698Z,73.10
2019-06-26T01:18:23.401Z,72.87
2019-06-26T01:20:55.135Z,73.45
2019-06-26T01:23:28.294Z,73.09
2019-06-26T01:26:00.215Z,73.15
2019-06-26T01:28:35.678Z,73.11
2019-06-26T01:31:07.229Z,73.08
2019-06-26T01:33:42.104Z,73.24
2019-06-26T01:36:13.318Z,73.64
2019-06-26T01:38:46.311Z,74.24
2019-06-26T01:41:20.317Z,73.95
2019-06-26T01:43:52.516Z,73.59
2019-06-26T01:46:26.367Z,73.27
2019-06-26T01:48:58.465Z,73.20
2019-06-26T01:51:30.529Z,73.77
2019-06-26T01:54:04.810Z,73.80
2019-06-26T01:56:37.431Z,73.50
2019-06-26T01:59:11.074Z,74.32
2019-06-26T02:01:44.810Z,74.36
2019-06-26T02:04:35.452Z,74.09
2019-06-26T02:07:11.093Z,74.56
2019-06-26T02:09:44.258Z,74.81
2019-06-26T02:12:17.482Z,75.19
2019-06-26T02:14:49.040Z,75.69
2019-06-26T02:17:22.478Z,75.23
2019-06-26T02:19:55.471Z,74.56
2019-06-26T02:22:29.537Z,74.45
2019-06-26T02:25:01.682Z,74.14
2019-06-26T02:27:34.993Z,73.74
2019-06-26T02:30:08.595Z,74.22
2019-06-26T02:32:40.576Z,73.96
2019-06-26T02:35:13.936Z,73.80
2019-06-26T02:37:47.777Z,73.74
2019-06-26T02:40:20.699Z,73.75
2019-06-26T02:42:52.465Z,73.42
2019-06-26T02:45:25.584Z,74.70
2019-06-26T02:47:58.572Z,74.88
2019-06-26T02:50:30.951Z,74.97
2019-06-26T02:53:04.559Z,75.34
2019-06-26T02:55:37.558Z,75.02
2019-06-26T02:58:10.756Z,74.59
2019-06-26T03:00:43.764Z,74.32
2019-06-26T03:03:20.046Z,74.60
2019-06-26T03:05:52.800Z,74.71
2019-06-26T03:08:25.863Z,75.05
2019-06-26T03:10:58.796Z,74.77
2019-06-26T03:13:31.840Z,75.45
2019-06-26T03:16:05.975Z,75.23
2019-06-26T03:18:38.844Z,74.62
2019-06-26T03:21:15.477Z,75.05
2019-06-26T03:23:47.017Z,74.51
2019-06-26T03:26:19.869Z,74.42
2019-06-26T03:28:52.878Z,74.30
2019-06-26T03:31:25.672Z,74.38
2019-06-26T03:33:58.908Z,74.16
2019-06-26T03:36:31.908Z,74.58
2019-06-26T03:39:03.514Z,75.24
2019-06-26T03:41:36.023Z,75.09
2019-06-26T03:44:08.832Z,74.60
2019-06-26T03:46:41.100Z,74.80
2019-06-26T03:49:23.803Z,74.87
2019-06-26T03:51:56.098Z,75.41
2019-06-26T03:54:27.775Z,75.36
2019-06-26T03:56:59.124Z,74.88
2019-06-26T03:59:30.329Z,74.99
2019-06-26T04:02:02.630Z,75.00
2019-06-26T04:04:33.933Z,75.49
2019-06-26T04:07:05.279Z,75.35
2019-06-26T04:09:37.356Z,75.20
2019-06-26T04:12:08.579Z,74.89
2019-06-26T04:14:40.198Z,75.19
2019-06-26T04:17:15.582Z,75.17
2019-06-26T04:19:48.215Z,75.17
2019-06-26T04:22:20.049Z,75.65
2019-06-26T04:24:53.243Z,76.27
2019-06-26T04:27:26.044Z,76.10
2019-06-26T04:29:58.982Z,75.71
2019-06-26T04:32:32.207Z,75.56
2019-06-26T04:35:05.584Z,75.13
2019-06-26T04:37:39.764Z,75.09
2019-06-26T04:40:11.593Z,75.29
2019-06-26T04:42:43.292Z,75.22
2019-06-26T04:45:20.593Z,75.25
2019-06-26T04:47:53.610Z,75.43
2019-06-26T04:50:26.406Z,75.26
2019-06-26T04:53:00.313Z,75.28
2019-06-26T04:55:33.146Z,75.24
2019-06-26T04:58:04.361Z,75.19
2019-06-26T05:00:40.005Z,75.35
2019-06-26T05:03:13.879Z,75.82
2019-06-26T05:05:47.651Z,75.53
2019-06-26T05:08:20.432Z,75.49
2019-06-26T05:10:52.343Z,75.22
2019-06-26T05:13:27.909Z,74.82
2019-06-26T05:16:13.692Z,74.52
2019-06-26T05:18:33.250Z,74.37
2019-06-26T05:21:05.739Z,74.17
2019-06-26T05:23:37.458Z,74.08
2019-06-26T05:26:08.759Z,73.97
2019-06-26T05:28:41.343Z,73.84
2019-06-26T05:31:16.828Z,73.90
2019-06-26T05:33:48.715Z,74.46
2019-06-26T05:36:21.545Z,76.05
2019-06-26T05:38:53.478Z,75.57
2019-06-26T05:41:26.471Z,75.08
2019-06-26T05:43:58.459Z,75.88
2019-06-26T05:46:31.807Z,75.35
2019-06-26T05:49:03.658Z,74.79
2019-06-26T05:51:36.587Z,74.56
2019-06-26T05:54:10.544Z,74.36
2019-06-26T05:56:45.568Z,74.49
2019-06-26T05:59:24.596Z,74.84
2019-06-26T06:01:59.037Z,75.94
2019-06-26T06:04:31.669Z,75.72
2019-06-26T06:07:04.484Z,75.67
2019-06-26T06:09:37.739Z,75.53
2019-06-26T06:12:11.531Z,75.20
2019-06-26T06:14:42.754Z,74.83
2019-06-26T06:17:24.477Z,75.17
2019-06-26T06:19:58.656Z,75.02
2019-06-26T06:22:31.087Z,74.43
2019-06-26T06:25:04.733Z,74.25
2019-06-26T06:27:41.098Z,73.20
2019-06-26T06:30:14.227Z,72.59
2019-06-26T06:32:46.836Z,74.05
2019-06-26T06:35:20.704Z,73.16
2019-06-26T06:37:52.644Z,73.73
2019-06-26T06:40:25.064Z,74.31
2019-06-26T06:42:56.439Z,73.78
2019-06-26T06:45:29.221Z,72.56
2019-06-26T06:48:01.823Z,71.68
2019-06-26T06:50:35.807Z,71.80
2019-06-26T06:53:13.734Z,71.74
2019-06-26T06:55:47.751Z,71.45
2019-06-26T06:58:19.695Z,71.78
2019-06-26T07:00:54.702Z,70.64
2019-06-26T07:03:25.909Z,70.51
2019-06-26T07:05:58.985Z,71.45
2019-06-26T07:08:32.536Z,72.35
2019-06-26T07:11:05.008Z,72.40
2019-06-26T07:13:46.853Z,71.85
2019-06-26T07:16:20.885Z,70.18
2019-06-26T07:18:52.882Z,68.64
2019-06-26T07:21:24.908Z,67.03
2019-06-26T07:24:00.618Z,67.49
2019-06-26T07:26:31.861Z,67.73
2019-06-26T07:29:05.157Z,68.16
2019-06-26T07:31:39.817Z,66.79
2019-06-26T07:34:14.031Z,65.98
2019-06-26T07:36:46.082Z,66.95
2019-06-26T07:39:19.181Z,67.21
2019-06-26T07:41:52.028Z,67.87
2019-06-26T07:44:26.278Z,66.29
2019-06-26T07:46:58.326Z,64.51
2019-06-26T07:49:31.124Z,63.69
2019-06-26T07:52:05.158Z,63.62
2019-06-26T07:54:37.952Z,64.52
2019-06-26T07:57:09.366Z,65.72
2019-06-26T07:59:45.269Z,65.60
2019-06-26T08:02:17.790Z,62.71
2019-06-26T08:04:49.356Z,63.19
2019-06-26T08:07:22.111Z,63.63
2019-06-26T08:09:56.345Z,63.51
2019-06-26T08:12:40.654Z,60.76
2019-06-26T08:15:30.066Z,62.16
2019-06-26T08:18:02.345Z,62.66
2019-06-26T08:20:50.231Z,60.05
2019-06-26T08:23:08.267Z,61.91
2019-06-26T08:25:41.773Z,62.22
2019-06-26T08:28:15.466Z,62.58
2019-06-26T08:30:48.781Z,61.47
2019-06-26T08:33:22.341Z,61.40
2019-06-26T08:35:56.561Z,61.88
2019-06-26T08:38:31.676Z,62.04
2019-06-26T08:41:06.596Z,60.98
2019-06-26T08:43:42.413Z,61.37
2019-06-26T08:46:17.397Z,60.93
2019-06-26T08:48:52.109Z,62.34
2019-06-26T08:51:23.389Z,62.46
2019-06-26T08:53:56.419Z,62.74
2019-06-26T08:56:29.585Z,61.86
2019-06-26T08:59:03.142Z,61.72
2019-06-26T09:01:36.401Z,63.04
2019-06-26T09:04:08.530Z,61.31
2019-06-26T09:06:41.586Z,61.82
2019-06-26T09:09:15.728Z,61.21
2019-06-26T09:11:47.561Z,59.34
2019-06-26T09:14:20.805Z,60.99
2019-06-26T09:16:56.536Z,59.09
2019-06-26T09:19:28.087Z,57.87
2019-06-26T09:21:59.526Z,59.87
2019-06-26T09:24:32.111Z,60.96
2019-06-26T09:27:05.871Z,61.57
2019-06-26T09:29:37.076Z,59.04
2019-06-26T09:32:08.862Z,59.54
2019-06-26T09:34:40.496Z,57.99
2019-06-26T09:37:18.404Z,58.08
2019-06-26T09:39:49.747Z,57.14
2019-06-26T09:42:23.567Z,58.73
2019-06-26T09:44:57.712Z,56.52
2019-06-26T09:47:31.091Z,56.37
2019-06-26T09:50:05.503Z,56.67
2019-06-26T09:52:38.975Z,56.78
2019-06-26T09:55:13.681Z,57.10
2019-06-26T09:57:47.493Z,56.46
2019-06-26T10:00:21.491Z,55.89
2019-06-26T10:02:53.068Z,56.21
2019-06-26T10:05:25.875Z,54.58
2019-06-26T10:07:58.830Z,55.42
2019-06-26T10:10:31.102Z,55.20
2019-06-26T10:13:02.328Z,54.57
2019-06-26T10:15:36.001Z,53.74
2019-06-26T10:18:08.071Z,52.75
2019-06-26T10:20:41.118Z,53.05
2019-06-26T10:23:18.447Z,53.12
2019-06-26T10:25:49.995Z,49.39
2019-06-26T10:28:22.294Z,51.03
2019-06-26T10:30:56.082Z,51.27
2019-06-26T10:33:27.945Z,52.15
2019-06-26T10:36:02.728Z,50.72
2019-06-26T10:38:35.978Z,50.84
2019-06-26T10:41:09.198Z,50.30
2019-06-26T10:43:41.121Z,48.80
2019-06-26T10:46:15.047Z,50.55
2019-06-26T10:48:48.087Z,49.60
2019-06-26T10:51:20.105Z,46.28
2019-06-26T10:53:53.084Z,47.02
2019-06-26T10:56:28.839Z,45.62
2019-06-26T10:59:02.250Z,44.41
2019-06-26T11:01:35.263Z,44.71
2019-06-26T11:04:08.027Z,44.46
2019-06-26T11:06:42.855Z,44.27
2019-06-26T11:09:15.161Z,43.28
2019-06-26T11:11:48.396Z,42.63
2019-06-26T11:14:23.599Z,42.51
2019-06-26T11:16:57.063Z,43.08
2019-06-26T11:19:42.768Z,43.05
2019-06-26T11:22:06.141Z,43.63
2019-06-26T11:24:38.939Z,44.28
2019-06-26T11:27:11.292Z,42.87
2019-06-26T11:29:44.252Z,42.25
2019-06-26T11:32:16.140Z,41.10
2019-06-26T11:34:51.418Z,42.07
2019-06-26T11:37:23.380Z,42.55
2019-06-26T11:39:56.243Z,44.21
2019-06-26T11:42:32.601Z,43.70
2019-06-26T11:45:02.238Z,42.96
2019-06-26T11:47:35.293Z,42.20
2019-06-26T11:50:10.056Z,42.36
2019-06-26T11:52:41.461Z,42.31
2019-06-26T11:55:16.589Z,39.90
2019-06-26T11:57:49.658Z,40.71
2019-06-26T12:00:22.824Z,41.01
2019-06-26T12:02:57.280Z,40.86
2019-06-26T12:05:32.122Z,39.98
2019-06-26T12:08:06.130Z,41.00
2019-06-26T12:10:37.524Z,40.27
2019-06-26T12:13:12.633Z,39.90
2019-06-26T12:15:47.162Z,40.16
2019-06-26T12:18:21.193Z,40.53
2019-06-26T12:20:59.828Z,41.10
2019-06-26T12:23:33.570Z,39.99
2019-06-26T12:26:08.612Z,41.65
2019-06-26T12:28:43.403Z,40.12
2019-06-26T12:31:14.622Z,39.99
2019-06-26T12:33:47.618Z,40.10
2019-06-26T12:36:20.415Z,40.59
2019-06-26T12:38:53.786Z,39.51
2019-06-26T12:41:26.543Z,38.47
2019-06-26T12:44:00.168Z,39.99
2019-06-26T12:46:32.542Z,40.83
2019-06-26T12:49:05.826Z,41.28
2019-06-26T12:51:38.757Z,38.04
2019-06-26T12:54:10.251Z,40.20
2019-06-26T12:56:41.808Z,41.05
2019-06-26T12:59:14.754Z,41.31
2019-06-26T13:01:48.157Z,38.17
2019-06-26T13:04:24.318Z,39.82
2019-06-26T13:06:59.042Z,37.74
2019-06-26T13:09:31.818Z,40.04
2019-06-26T13:12:05.833Z,36.99
2019-06-26T13:14:39.624Z,38.27
2019-06-26T13:17:12.089Z,38.21
2019-06-26T13:19:44.083Z,37.92
2019-06-26T13:22:20.998Z,37.39
2019-06-26T13:24:54.030Z,37.45
2019-06-26T13:27:27.979Z,37.80
2019-06-26T13:29:59.962Z,38.67
2019-06-26T13:32:31.775Z,35.58
2019-06-26T13:35:05.881Z,36.50
2019-06-26T13:37:38.931Z,36.82
2019-06-26T13:40:12.393Z,35.10
2019-06-26T13:42:44.766Z,36.35
2019-06-26T13:45:17.851Z,36.25
2019-06-26T13:47:50.191Z,35.27
2019-06-26T13:50:25.034Z,35.99
2019-06-26T13:52:57.888Z,36.28
2019-06-26T13:55:29.999Z,34.34
2019-06-26T13:58:04.052Z,34.36
2019-06-26T14:00:37.268Z,34.79
2019-06-26T14:03:09.529Z,36.69
2019-06-26T14:05:43.689Z,34.16
2019-06-26T14:08:15.341Z,33.74
2019-06-26T14:10:47.977Z,33.50
2019-06-26T14:13:21.157Z,34.76
2019-06-26T14:15:54.134Z,34.76
2019-06-26T14:18:30.571Z,34.39
2019-06-26T14:21:03.131Z,34.35
2019-06-26T14:23:37.868Z,32.46
2019-06-26T14:26:09.046Z,33.39
2019-06-26T14:28:42.328Z,34.57
2019-06-26T14:31:14.503Z,34.21
2019-06-26T14:33:49.903Z,34.81
2019-06-26T14:36:23.519Z,33.58
2019-06-26T14:38:56.229Z,33.47
2019-06-26T14:41:30.951Z,34.87
2019-06-26T14:44:02.273Z,31.84
2019-06-26T14:46:36.844Z,33.03
2019-06-26T14:49:08.362Z,32.74
2019-06-26T14:51:47.130Z,32.45
2019-06-26T14:54:15.294Z,33.97
2019-06-26T14:56:48.281Z,32.73
2019-06-26T14:59:20.716Z,31.57
2019-06-26T15:01:53.468Z,30.90
2019-06-26T15:04:27.624Z,30.66
2019-06-26T15:07:01.879Z,32.47
2019-06-26T15:09:34.437Z,32.93
2019-06-26T15:12:08.335Z,32.97
2019-06-26T15:14:40.540Z,33.98
2019-06-26T15:17:12.447Z,34.22
2019-06-26T15:19:43.664Z,33.77
2019-06-26T15:22:19.115Z,33.70
2019-06-26T15:24:50.521Z,34.05
2019-06-26T15:27:23.408Z,32.76
2019-06-26T15:30:13.983Z,32.25
2019-06-26T15:32:45.584Z,32.85
2019-06-26T15:35:17.942Z,32.69
2019-06-26T15:37:51.370Z,32.08
2019-06-26T15:40:24.758Z,33.30
2019-06-26T15:43:02.927Z,33.68
2019-06-26T15:45:52.361Z,33.49
2019-06-26T15:48:42.262Z,32.79
2019-06-26T15:51:31.874Z,32.77
2019-06-26T15:54:10.709Z,33.50
2019-06-26T15:56:42.663Z,35.55
2019-06-26T15:59:16.153Z,35.83
2019-06-26T16:01:53.994Z,34.48
2019-06-26T16:04:26.663Z,35.23
2019-06-26T16:06:59.634Z,35.59
2019-06-26T16:09:31.780Z,34.45
2019-06-26T16:12:07.297Z,36.10
2019-06-26T16:14:40.811Z,36.26
2019-06-26T16:17:24.130Z,37.23
2019-06-26T16:19:57.515Z,37.33
2019-06-26T16:22:32.674Z,37.36
2019-06-26T16:25:03.124Z,36.42
2019-06-26T16:27:37.828Z,36.52
2019-06-26T16:30:12.436Z,37.42
2019-06-26T16:32:46.487Z,37.87
2019-06-26T16:35:17.966Z,38.92
2019-06-26T16:37:50.424Z,39.24
2019-06-26T16:40:21.899Z,38.21
2019-06-26T16:42:54.225Z,40.19
2019-06-26T16:45:26.034Z,39.21
2019-06-26T16:48:00.068Z,40.45
2019-06-26T16:50:31.468Z,40.51
2019-06-26T16:53:03.006Z,41.90
2019-06-26T16:55:35.951Z,41.17
2019-06-26T16:58:09.038Z,41.88
2019-06-26T17:00:41.853Z,42.84
2019-06-26T17:03:14.914Z,43.08
2019-06-26T17:05:48.054Z,43.22
2019-06-26T17:08:22.593Z,43.70
2019-06-26T17:10:54.047Z,43.86
2019-06-26T17:13:30.462Z,45.21
2019-06-26T17:16:03.068Z,45.58
2019-06-26T17:18:41.366Z,46.94
2019-06-26T17:21:15.075Z,47.30
2019-06-26T17:23:50.574Z,47.35
2019-06-26T17:26:28.910Z,47.17
2019-06-26T17:29:03.298Z,47.61
2019-06-26T17:31:36.101Z,47.74
2019-06-26T17:34:11.378Z,48.15
2019-06-26T17:36:46.874Z,47.97
2019-06-26T17:39:26.869Z,48.17
2019-06-26T17:42:01.329Z,49.04
2019-06-26T17:44:38.082Z,49.66
2019-06-26T17:47:13.956Z,50.04
2019-06-26T17:49:48.875Z,50.12
2019-06-26T17:52:27.681Z,50.81
2019-06-26T17:55:00.074Z,51.00
2019-06-26T17:57:34.058Z,51.52
2019-06-26T18:00:07.760Z,51.81
2019-06-26T18:02:39.367Z,52.76
2019-06-26T18:05:12.790Z,51.99
2019-06-26T18:07:44.121Z,51.99
2019-06-26T18:10:20.086Z,52.12
2019-06-26T18:12:51.284Z,52.03
2019-06-26T18:15:24.556Z,51.91
2019-06-26T18:17:59.011Z,51.79
2019-06-26T18:20:30.409Z,51.77
2019-06-26T18:23:07.777Z,51.54
2019-06-26T18:25:53.611Z,51.54
2019-06-26T18:28:24.976Z,51.71
2019-06-26T18:30:58.476Z,51.55
2019-06-26T18:33:31.709Z,51.42
2019-06-26T18:36:03.791Z,51.60
2019-06-26T18:38:35.376Z,51.24
2019-06-26T18:41:09.750Z,51.38
2019-06-26T18:43:42.963Z,52.39
2019-06-26T18:46:15.556Z,52.67
2019-06-26T18:48:50.342Z,53.71
2019-06-26T18:51:24.587Z,53.72
2019-06-26T18:54:01.106Z,53.39
2019-06-26T18:56:32.911Z,52.66
2019-06-26T18:59:04.690Z,53.49
2019-06-26T19:01:36.554Z,53.62
2019-06-26T19:04:09.701Z,52.92
2019-06-26T19:06:42.523Z,52.73
2019-06-26T19:09:17.272Z,53.70
2019-06-26T19:11:48.779Z,53.76
2019-06-26T19:14:23.745Z,54.23
2019-06-26T19:16:58.869Z,54.79
2019-06-26T19:19:32.649Z,54.39
2019-06-26T19:22:05.947Z,55.64
2019-06-26T19:24:37.177Z,55.94
2019-06-26T19:27:10.038Z,56.03
2019-06-26T19:29:41.802Z,57.62
2019-06-26T19:32:14.803Z,58.03
2019-06-26T19:34:47.968Z,57.95
2019-06-26T19:37:20.828Z,57.60
2019-06-26T19:39:53.721Z,57.61
2019-06-26T19:42:27.807Z,57.19
2019-06-26T19:44:59.939Z,57.54
2019-06-26T19:47:34.634Z,57.96
2019-06-26T19:50:06.293Z,57.01
2019-06-26T19:52:39.711Z,57.93
2019-06-26T19:55:15.855Z,57.55
2019-06-26T19:57:48.921Z,56.90
2019-06-26T20:00:21.877Z,57.02
2019-06-26T20:02:54.863Z,57.80
2019-06-26T20:05:29.139Z,57.49
2019-06-26T20:08:02.945Z,57.41
2019-06-26T20:10:37.725Z,57.52
2019-06-26T20:13:14.537Z,57.46
2019-06-26T20:15:46.556Z,57.82
2019-06-26T20:18:19.733Z,58.41
2019-06-26T20:20:51.522Z,58.57
2019-06-26T20:23:24.112Z,58.25
2019-06-26T20:25:57.061Z,58.56
2019-06-26T20:28:31.065Z,59.25
2019-06-26T20:31:04.229Z,59.41
2019-06-26T20:33:35.873Z,58.41
2019-06-26T20:36:08.166Z,58.15
2019-06-26T20:38:43.716Z,57.97
2019-06-26T20:41:16.939Z,58.19
2019-06-26T20:43:51.022Z,58.31
2019-06-26T20:46:24.141Z,58.35
2019-06-26T20:48:55.913Z,58.26
2019-06-26T20:51:29.098Z,58.17
2019-06-26T20:54:02.188Z,58.33
2019-06-26T20:56:36.353Z,58.53
2019-06-26T20:59:09.196Z,58.47
2019-06-26T21:01:41.132Z,58.45
2019-06-26T21:04:15.031Z,58.52
2019-06-26T21:06:48.242Z,58.53
2019-06-26T21:09:26.417Z,59.23
2019-06-26T21:12:00.513Z,59.50
2019-06-26T21:14:33.958Z,59.02
2019-06-26T21:17:06.646Z,58.76
2019-06-26T21:19:39.237Z,58.76
2019-06-26T21:22:11.994Z,58.40
2019-06-26T21:24:43.213Z,58.36
2019-06-26T21:27:16.369Z,58.42
2019-06-26T21:29:51.884Z,58.20
2019-06-26T21:32:25.522Z,58.18
2019-06-26T21:34:57.634Z,58.20
2019-06-26T21:37:30.342Z,58.42
2019-06-26T21:40:03.304Z,59.41
2019-06-26T21:42:36.545Z,59.84
2019-06-26T21:45:13.346Z,59.47
2019-06-26T21:47:47.082Z,59.88
2019-06-26T21:50:20.685Z,60.16
2019-06-26T21:52:55.019Z,59.96
2019-06-26T21:55:34.367Z,60.04
2019-06-26T21:58:03.441Z,59.99
2019-06-26T22:00:36.536Z,59.74
2019-06-26T22:03:22.037Z,59.80
2019-06-26T22:05:48.501Z,59.38
2019-06-26T22:08:22.340Z,59.48
2019-06-26T22:10:55.790Z,59.36
2019-06-26T22:13:29.230Z,59.59
2019-06-26T22:16:00.506Z,60.07
2019-06-26T22:18:34.495Z,59.50
2019-06-26T22:21:08.381Z,59.71
2019-06-26T22:23:41.582Z,59.71
2019-06-26T22:26:17.340Z,59.96
2019-06-26T22:28:48.598Z,60.35
2019-06-26T22:31:22.365Z,60.77
2019-06-26T22:33:54.697Z,61.50
2019-06-26T22:36:27.755Z,62.05
2019-06-26T22:39:00.784Z,62.16
2019-06-26T22:41:33.755Z,62.71
2019-06-26T22:44:06.845Z,62.60
2019-06-26T22:46:40.703Z,63.13
2019-06-26T22:49:17.548Z,63.33
2019-06-26T22:51:49.905Z,62.61
2019-06-26T22:54:26.303Z,63.20
2019-06-26T22:56:57.789Z,63.18
2019-06-26T22:59:29.761Z,62.91
2019-06-26T23:02:04.029Z,62.58
2019-06-26T23:04:35.631Z,62.93
2019-06-26T23:07:12.365Z,62.69
2019-06-26T23:09:46.666Z,62.36
2019-06-26T23:12:21.086Z,63.29
2019-06-26T23:14:55.774Z,63.58
2019-06-26T23:17:29.653Z,63.25
2019-06-26T23:20:03.990Z,63.76
2019-06-26T23:22:36.923Z,63.55
2019-06-26T23:25:10.920Z,63.30
2019-06-26T23:27:44.836Z,63.98
2019-06-26T23:30:20.380Z,64.06
2019-06-26T23:32:52.010Z,64.12
2019-06-26T23:35:23.842Z,64.28
2019-06-26T23:37:57.825Z,64.08
2019-06-26T23:40:30.825Z,63.96
2019-06-26T23:43:04.095Z,64.06
2019-06-26T23:45:38.073Z,64.23
2019-06-26T23:48:10.015Z,64.20
2019-06-26T23:50:42.988Z,64.51
2019-06-26T23:53:16.360Z,64.44
2019-06-26T23:55:49.143Z,64.75
2019-06-26T23:58:22.121Z,64.61
